createdAt,value
2019-05-10T00:00:13.404Z,15.80
2019-05-10T00:02:59.244Z,15.70
2019-05-10T00:05:46.263Z,15.70
2019-05-10T00:08:32.153Z,15.80
2019-05-10T00:11:28.308Z,15.70
2019-05-10T00:14:14.586Z,15.70
2019-05-10T00:16:42.966Z,15.70
2019-05-10T00:19:11.271Z,15.70
2019-05-10T00:21:39.733Z,15.70
2019-05-10T00:24:07.895Z,15.70
2019-05-10T00:26:36.094Z,15.70
2019-05-10T00:29:04.604Z,15.70
2019-05-10T00:31:33.051Z,15.60
2019-05-10T00:34:00.993Z,15.70
2019-05-10T00:36:29.221Z,15.70
2019-05-10T00:38:57.578Z,15.70
2019-05-10T00:41:25.988Z,15.70
2019-05-10T00:43:54.304Z,15.70
2019-05-10T00:46:22.209Z,15.60
2019-05-10T00:48:50.286Z,15.70
2019-05-10T00:51:18.594Z,15.70
2019-05-10T00:53:47.043Z,15.60
2019-05-10T00:56:15.498Z,15.70
2019-05-10T00:58:43.917Z,15.60
2019-05-10T01:01:12.226Z,15.70
2019-05-10T01:03:40.156Z,15.60
2019-05-10T01:06:08.663Z,15.70
2019-05-10T01:08:36.596Z,15.60
2019-05-10T01:11:05.097Z,15.60
2019-05-10T01:13:33.668Z,15.60
2019-05-10T01:16:01.595Z,15.60
2019-05-10T01:18:29.523Z,15.60
2019-05-10T01:20:57.483Z,15.60
2019-05-10T01:23:26.082Z,15.60
2019-05-10T01:25:54.329Z,15.60
2019-05-10T01:28:22.592Z,15.60
2019-05-10T01:30:50.668Z,15.60
2019-05-10T01:33:18.705Z,15.60
2019-05-10T01:35:47.026Z,15.60
2019-05-10T01:38:14.850Z,15.60
2019-05-10T01:40:42.779Z,15.60
2019-05-10T01:43:11.139Z,15.60
2019-05-10T01:45:39.358Z,15.50
2019-05-10T01:48:07.368Z,15.50
2019-05-10T01:50:35.742Z,15.50
2019-05-10T01:53:03.760Z,15.50
2019-05-10T01:55:32.106Z,15.50
2019-05-10T01:58:00.550Z,15.50
2019-05-10T02:00:28.586Z,15.50
2019-05-10T02:02:56.617Z,15.50
2019-05-10T02:05:24.626Z,15.50
2019-05-10T02:07:52.600Z,15.50
2019-05-10T02:10:20.553Z,15.50
2019-05-10T02:12:48.909Z,15.50
2019-05-10T02:15:17.374Z,15.50
2019-05-10T02:17:45.422Z,15.50
2019-05-10T02:20:14.048Z,15.50
2019-05-10T02:22:42.693Z,15.50
2019-05-10T02:25:11.028Z,15.50
2019-05-10T02:27:39.532Z,15.50
2019-05-10T02:30:09.016Z,15.50
2019-05-10T02:32:37.383Z,15.50
2019-05-10T02:35:05.657Z,15.50
2019-05-10T02:37:33.760Z,15.50
2019-05-10T02:40:01.718Z,15.50
2019-05-10T02:42:30.322Z,15.50
2019-05-10T02:44:58.549Z,15.50
2019-05-10T02:47:26.560Z,15.50
2019-05-10T02:49:54.511Z,15.50
2019-05-10T02:52:22.641Z,15.50
2019-05-10T02:54:51.151Z,15.50
2019-05-10T02:57:20.880Z,15.50
2019-05-10T02:59:49.012Z,15.50
2019-05-10T03:02:17.932Z,15.40
2019-05-10T03:04:46.662Z,15.40
2019-05-10T03:07:16.670Z,15.40
2019-05-10T03:09:48.065Z,15.50
2019-05-10T03:12:26.149Z,15.40
2019-05-10T03:14:56.190Z,15.40
2019-05-10T03:17:25.666Z,15.40
2019-05-10T03:19:54.328Z,15.40
2019-05-10T03:22:24.373Z,15.40
2019-05-10T03:24:52.905Z,15.40
2019-05-10T03:27:20.794Z,15.40
2019-05-10T03:29:50.017Z,15.40
2019-05-10T03:32:18.187Z,15.40
2019-05-10T03:34:46.339Z,15.40
2019-05-10T03:37:14.522Z,15.40
2019-05-10T03:39:42.665Z,15.40
2019-05-10T03:42:11.069Z,15.40
2019-05-10T03:44:39.111Z,15.30
2019-05-10T03:47:07.033Z,15.40
2019-05-10T03:49:35.027Z,15.40
2019-05-10T03:52:02.907Z,15.30
2019-05-10T03:54:30.842Z,15.30
2019-05-10T03:57:12.056Z,15.30
2019-05-10T03:59:28.618Z,15.30
2019-05-10T04:01:56.517Z,15.30
2019-05-10T04:04:24.545Z,15.30
2019-05-10T04:06:52.552Z,15.30
2019-05-10T04:09:21.055Z,15.40
2019-05-10T04:11:48.978Z,15.40
2019-05-10T04:14:21.300Z,15.40
2019-05-10T04:16:49.789Z,15.30
2019-05-10T04:19:17.801Z,15.40
2019-05-10T04:21:45.900Z,15.40
2019-05-10T04:24:13.878Z,15.40
2019-05-10T04:26:42.024Z,15.40
2019-05-10T04:29:09.988Z,15.40
2019-05-10T04:31:37.847Z,15.30
2019-05-10T04:34:05.819Z,15.30
2019-05-10T04:36:33.729Z,15.30
2019-05-10T04:39:01.823Z,15.40
2019-05-10T04:41:29.746Z,15.30
2019-05-10T04:43:57.723Z,15.30
2019-05-10T04:46:25.643Z,15.30
2019-05-10T04:48:53.614Z,15.30
2019-05-10T04:51:22.084Z,15.40
2019-05-10T04:53:50.422Z,15.40
2019-05-10T04:56:18.720Z,15.30
2019-05-10T04:58:46.678Z,15.30
2019-05-10T05:01:14.742Z,15.30
2019-05-10T05:03:42.810Z,15.30
2019-05-10T05:06:10.656Z,15.30
2019-05-10T05:08:38.642Z,15.30
2019-05-10T05:11:09.005Z,15.30
2019-05-10T05:13:36.986Z,15.40
2019-05-10T05:16:05.024Z,15.30
2019-05-10T05:18:33.049Z,15.30
2019-05-10T05:21:01.067Z,15.40
2019-05-10T05:23:29.040Z,15.40
2019-05-10T05:25:57.061Z,15.40
2019-05-10T05:28:29.853Z,15.40
2019-05-10T05:30:57.830Z,15.40
2019-05-10T05:33:25.841Z,15.40
2019-05-10T05:35:53.735Z,15.40
2019-05-10T05:38:21.707Z,15.40
2019-05-10T05:40:50.111Z,15.30
2019-05-10T05:43:18.508Z,15.40
2019-05-10T05:45:47.026Z,15.40
2019-05-10T05:48:16.076Z,15.40
2019-05-10T05:50:44.752Z,15.40
2019-05-10T05:53:12.724Z,15.30
2019-05-10T05:55:40.660Z,15.40
2019-05-10T05:58:25.229Z,15.30
2019-05-10T06:00:44.619Z,15.40
2019-05-10T06:03:08.349Z,15.30
2019-05-10T06:05:37.336Z,15.30
2019-05-10T06:08:21.450Z,15.40
2019-05-10T06:10:37.534Z,15.40
2019-05-10T06:13:06.829Z,15.40
2019-05-10T06:15:49.597Z,15.40
2019-05-10T06:18:17.863Z,15.40
2019-05-10T06:20:47.009Z,15.50
2019-05-10T06:23:14.922Z,15.50
2019-05-10T06:25:43.149Z,15.50
2019-05-10T06:28:25.819Z,15.50
2019-05-10T06:30:40.788Z,15.50
2019-05-10T06:33:12.583Z,15.60
2019-05-10T06:35:38.742Z,15.50
2019-05-10T06:38:06.929Z,15.50
2019-05-10T06:40:44.712Z,15.50
2019-05-10T06:43:06.897Z,15.50
2019-05-10T06:45:34.684Z,15.50
2019-05-10T06:48:02.706Z,15.60
2019-05-10T06:50:31.939Z,15.60
2019-05-10T06:53:06.675Z,15.60
2019-05-10T06:55:29.932Z,15.60
2019-05-10T06:58:00.678Z,15.60
2019-05-10T07:00:27.657Z,15.60
2019-05-10T07:02:55.861Z,15.60
2019-05-10T07:05:23.794Z,15.60
2019-05-10T07:07:51.750Z,15.70
2019-05-10T07:10:25.188Z,15.70
2019-05-10T07:12:49.717Z,15.70
2019-05-10T07:15:17.923Z,15.70
2019-05-10T07:17:47.313Z,15.70
2019-05-10T07:20:15.849Z,15.70
2019-05-10T07:22:43.870Z,15.80
2019-05-10T07:25:11.934Z,15.80
2019-05-10T07:27:39.951Z,15.80
2019-05-10T07:30:08.629Z,15.90
2019-05-10T07:32:36.606Z,15.90
2019-05-10T07:35:04.753Z,16.00
2019-05-10T07:37:32.797Z,16.00
2019-05-10T07:40:03.397Z,16.10
2019-05-10T07:42:30.457Z,16.10
2019-05-10T07:44:58.991Z,16.10
2019-05-10T07:47:30.262Z,16.20
2019-05-10T07:49:56.842Z,16.20
2019-05-10T07:52:24.925Z,16.20
2019-05-10T07:54:52.972Z,16.20
2019-05-10T07:57:24.654Z,16.20
2019-05-10T07:59:51.393Z,16.20
2019-05-10T08:02:19.584Z,16.20
2019-05-10T08:04:50.574Z,16.20
2019-05-10T08:07:18.544Z,16.30
2019-05-10T08:09:48.682Z,16.30
2019-05-10T08:12:19.280Z,16.30
2019-05-10T08:15:11.135Z,16.50
2019-05-10T08:17:41.121Z,16.50
2019-05-10T08:20:20.387Z,16.60
2019-05-10T08:22:45.966Z,16.60
2019-05-10T08:25:09.556Z,16.70
2019-05-10T08:27:44.010Z,16.70
2019-05-10T08:30:24.424Z,16.60
2019-05-10T08:33:27.293Z,16.60
2019-05-10T08:36:00.803Z,16.60
2019-05-10T08:38:23.502Z,16.50
2019-05-10T08:40:52.761Z,16.50
2019-05-10T08:43:21.850Z,16.50
2019-05-10T08:45:52.451Z,16.40
2019-05-10T08:48:23.120Z,16.40
2019-05-10T08:50:56.848Z,16.50
2019-05-10T08:53:20.117Z,16.40
2019-05-10T08:55:48.429Z,16.40
2019-05-10T08:58:23.980Z,16.50
2019-05-10T09:00:55.075Z,16.50
2019-05-10T09:03:18.651Z,16.60
2019-05-10T09:05:46.809Z,16.70
2019-05-10T09:08:20.317Z,16.70
2019-05-10T09:10:44.376Z,16.80
2019-05-10T09:13:12.821Z,16.80
2019-05-10T09:15:51.372Z,16.90
2019-05-10T09:18:12.853Z,17.00
2019-05-10T09:20:42.075Z,17.00
2019-05-10T09:23:15.355Z,17.10
2019-05-10T09:25:42.409Z,17.20
2019-05-10T09:28:16.458Z,17.30
2019-05-10T09:30:54.198Z,17.40
2019-05-10T09:33:13.385Z,17.50
2019-05-10T09:35:44.142Z,17.60
2019-05-10T09:38:08.939Z,17.70
2019-05-10T09:40:42.557Z,17.80
2019-05-10T09:43:09.634Z,17.80
2019-05-10T09:45:36.654Z,17.90
2019-05-10T09:48:05.184Z,18.00
2019-05-10T09:50:46.924Z,18.10
2019-05-10T09:53:30.502Z,18.20
2019-05-10T09:56:10.667Z,18.30
2019-05-10T09:58:38.903Z,18.40
2019-05-10T10:01:14.831Z,18.40
2019-05-10T10:03:43.290Z,18.50
2019-05-10T10:06:10.712Z,18.50
2019-05-10T10:08:38.430Z,18.50
2019-05-10T10:11:15.132Z,18.50
2019-05-10T10:13:43.272Z,18.50
2019-05-10T10:16:12.697Z,18.50
2019-05-10T10:18:38.611Z,18.40
2019-05-10T10:21:06.696Z,18.40
2019-05-10T10:23:37.211Z,18.40
2019-05-10T10:26:04.500Z,18.40
2019-05-10T10:28:32.509Z,18.40
2019-05-10T10:31:05.247Z,18.40
2019-05-10T10:33:31.006Z,18.60
2019-05-10T10:36:04.643Z,18.60
2019-05-10T10:38:31.322Z,18.70
2019-05-10T10:40:58.664Z,18.70
2019-05-10T10:43:27.205Z,18.80
2019-05-10T10:45:57.377Z,18.80
2019-05-10T10:48:28.278Z,18.70
2019-05-10T10:50:58.337Z,18.70
2019-05-10T10:53:28.040Z,18.60
2019-05-10T10:56:00.865Z,18.50
2019-05-10T10:58:27.455Z,18.50
2019-05-10T11:00:54.969Z,18.50
2019-05-10T11:03:23.850Z,18.60
2019-05-10T11:05:53.558Z,18.70
2019-05-10T11:08:22.066Z,18.70
2019-05-10T11:10:50.837Z,18.70
2019-05-10T11:13:39.920Z,18.70
2019-05-10T11:15:52.293Z,18.80
2019-05-10T11:18:21.676Z,18.90
2019-05-10T11:20:53.825Z,19.00
2019-05-10T11:23:26.831Z,19.00
2019-05-10T11:25:54.899Z,19.00
2019-05-10T11:28:20.658Z,19.00
2019-05-10T11:30:51.227Z,19.00
2019-05-10T11:33:29.204Z,19.00
2019-05-10T11:35:51.416Z,19.10
2019-05-10T11:38:21.438Z,19.10
2019-05-10T11:40:58.732Z,19.10
2019-05-10T11:43:34.070Z,19.20
2019-05-10T11:46:02.970Z,19.20
2019-05-10T11:48:37.778Z,19.20
2019-05-10T11:51:12.460Z,19.20
2019-05-10T11:53:48.991Z,19.20
2019-05-10T11:56:27.317Z,19.20
2019-05-10T11:58:56.976Z,19.30
2019-05-10T12:01:32.521Z,19.40
2019-05-10T12:04:13.040Z,19.50
2019-05-10T12:06:50.050Z,19.50
2019-05-10T12:09:21.287Z,19.50
2019-05-10T12:11:56.815Z,19.40
2019-05-10T12:14:48.347Z,19.50
2019-05-10T12:17:23.912Z,19.60
2019-05-10T12:20:02.249Z,19.60
2019-05-10T12:22:38.319Z,19.70
2019-05-10T12:25:34.077Z,19.60
2019-05-10T12:27:51.472Z,19.60
2019-05-10T12:30:23.703Z,19.70
2019-05-10T12:33:05.892Z,19.80
2019-05-10T12:35:39.260Z,19.90
2019-05-10T12:38:11.408Z,20.00
2019-05-10T12:40:45.839Z,20.00
2019-05-10T12:43:21.330Z,19.90
2019-05-10T12:45:57.360Z,19.90
2019-05-10T12:48:33.933Z,19.90
2019-05-10T12:51:11.551Z,20.00
2019-05-10T12:53:47.696Z,20.10
2019-05-10T12:56:20.630Z,20.10
2019-05-10T12:58:57.446Z,20.30
2019-05-10T13:01:31.780Z,20.40
2019-05-10T13:04:13.983Z,20.30
2019-05-10T13:06:41.132Z,20.30
2019-05-10T13:09:15.600Z,20.40
2019-05-10T13:11:49.767Z,20.30
2019-05-10T13:14:46.516Z,20.30
2019-05-10T13:17:16.992Z,20.30
2019-05-10T13:19:52.687Z,20.30
2019-05-10T13:22:37.074Z,20.20
2019-05-10T13:24:56.960Z,20.20
2019-05-10T13:27:31.960Z,20.20
2019-05-10T13:30:06.026Z,20.30
2019-05-10T13:32:41.118Z,20.40
2019-05-10T13:35:16.909Z,20.40
2019-05-10T13:37:50.855Z,20.50
2019-05-10T13:40:26.276Z,20.40
2019-05-10T13:42:57.700Z,20.40
2019-05-10T13:45:37.445Z,20.40
2019-05-10T13:48:07.984Z,20.50
2019-05-10T13:50:42.537Z,20.50
2019-05-10T13:53:19.765Z,20.50
2019-05-10T13:55:47.792Z,20.50
2019-05-10T13:58:21.499Z,20.40
2019-05-10T14:00:54.587Z,20.50
2019-05-10T14:03:26.777Z,20.50
2019-05-10T14:06:02.351Z,20.50
2019-05-10T14:08:34.375Z,20.40
2019-05-10T14:11:14.645Z,20.40
2019-05-10T14:13:47.275Z,20.50
2019-05-10T14:16:49.643Z,20.50
2019-05-10T14:19:23.314Z,20.60
2019-05-10T14:21:52.538Z,20.70
2019-05-10T14:24:22.784Z,20.70
2019-05-10T14:26:59.201Z,20.70
2019-05-10T14:29:34.358Z,20.70
2019-05-10T14:32:05.569Z,20.70
2019-05-10T14:34:38.011Z,20.60
2019-05-10T14:37:06.798Z,20.70
2019-05-10T14:39:35.367Z,20.70
2019-05-10T14:42:09.519Z,20.70
2019-05-10T14:44:41.367Z,20.70
2019-05-10T14:47:13.287Z,20.70
2019-05-10T14:49:46.910Z,20.70
2019-05-10T14:52:23.464Z,20.70
2019-05-10T14:54:55.375Z,20.60
2019-05-10T14:57:23.358Z,20.60
2019-05-10T14:59:54.927Z,20.60
2019-05-10T15:02:24.932Z,20.50
2019-05-10T15:04:52.623Z,20.40
2019-05-10T15:07:20.489Z,20.50
2019-05-10T15:09:48.411Z,20.50
2019-05-10T15:12:21.988Z,20.50
2019-05-10T15:15:37.314Z,20.50
2019-05-10T15:18:01.971Z,20.50
2019-05-10T15:20:30.027Z,20.50
2019-05-10T15:22:57.899Z,20.60
2019-05-10T15:25:25.893Z,20.60
2019-05-10T15:27:54.733Z,20.60
2019-05-10T15:30:23.898Z,20.60
2019-05-10T15:32:51.839Z,20.60
2019-05-10T15:35:19.826Z,20.60
2019-05-10T15:37:48.353Z,20.60
2019-05-10T15:40:16.731Z,20.50
2019-05-10T15:42:44.627Z,20.50
2019-05-10T15:45:14.639Z,20.50
2019-05-10T15:47:50.494Z,20.50
2019-05-10T15:50:13.020Z,20.50
2019-05-10T15:52:46.180Z,20.50
2019-05-10T15:55:16.474Z,20.50
2019-05-10T15:57:43.448Z,20.50
2019-05-10T16:00:11.974Z,20.50
2019-05-10T16:02:39.912Z,20.50
2019-05-10T16:05:23.504Z,20.60
2019-05-10T16:07:38.124Z,20.60
2019-05-10T16:10:07.050Z,20.60
2019-05-10T16:12:37.846Z,20.60
2019-05-10T16:15:39.235Z,20.60
2019-05-10T16:18:06.325Z,20.60
2019-05-10T16:20:37.093Z,20.50
2019-05-10T16:23:08.685Z,20.50
2019-05-10T16:25:41.802Z,20.50
2019-05-10T16:28:04.162Z,20.40
2019-05-10T16:30:32.132Z,20.40
2019-05-10T16:33:00.234Z,20.40
2019-05-10T16:35:38.380Z,20.30
2019-05-10T16:38:44.739Z,20.30
2019-05-10T16:41:12.670Z,20.30
2019-05-10T16:43:40.579Z,20.20
2019-05-10T16:46:08.655Z,20.20
2019-05-10T16:48:36.636Z,20.10
2019-05-10T16:51:09.986Z,20.10
2019-05-10T16:53:37.726Z,20.00
2019-05-10T16:56:04.179Z,20.00
2019-05-10T16:58:32.360Z,19.90
2019-05-10T17:01:00.305Z,19.90
2019-05-10T17:03:28.769Z,19.80
2019-05-10T17:05:58.825Z,19.70
2019-05-10T17:08:30.667Z,19.80
2019-05-10T17:11:09.491Z,19.70
2019-05-10T17:13:36.451Z,19.70
2019-05-10T17:16:49.615Z,19.70
2019-05-10T17:19:14.567Z,19.60
2019-05-10T17:21:42.669Z,19.60
2019-05-10T17:24:11.001Z,19.60
2019-05-10T17:26:39.094Z,19.60
2019-05-10T17:29:07.266Z,19.50
2019-05-10T17:31:39.682Z,19.50
2019-05-10T17:34:06.569Z,19.50
2019-05-10T17:36:34.569Z,19.50
2019-05-10T17:39:03.301Z,19.40
2019-05-10T17:41:31.252Z,19.40
2019-05-10T17:43:59.224Z,19.40
2019-05-10T17:46:27.164Z,19.40
2019-05-10T17:48:55.083Z,19.30
2019-05-10T17:51:23.191Z,19.30
2019-05-10T17:53:55.066Z,19.20
2019-05-10T17:56:20.783Z,19.20
2019-05-10T17:58:48.844Z,19.20
2019-05-10T18:01:17.207Z,19.20
2019-05-10T18:03:45.148Z,19.10
2019-05-10T18:06:23.486Z,19.10
2019-05-10T18:08:43.377Z,19.10
2019-05-10T18:11:11.348Z,19.10
2019-05-10T18:13:40.791Z,19.00
2019-05-10T18:16:58.569Z,19.00
2019-05-10T18:19:26.182Z,19.00
2019-05-10T18:21:55.063Z,18.90
2019-05-10T18:24:24.627Z,18.90
2019-05-10T18:26:52.689Z,18.80
2019-05-10T18:29:20.839Z,18.80
2019-05-10T18:31:56.346Z,18.80
2019-05-10T18:34:18.680Z,18.80
2019-05-10T18:36:51.448Z,18.70
2019-05-10T18:39:17.830Z,18.60
2019-05-10T18:41:46.646Z,18.50
2019-05-10T18:44:15.999Z,18.50
2019-05-10T18:46:44.155Z,18.40
2019-05-10T18:49:12.378Z,18.40
2019-05-10T18:51:40.534Z,18.40
2019-05-10T18:54:08.437Z,18.30
2019-05-10T18:56:36.385Z,18.30
2019-05-10T18:59:07.587Z,18.30
2019-05-10T19:01:38.745Z,18.20
2019-05-10T19:04:07.385Z,18.10
2019-05-10T19:06:33.999Z,18.10
2019-05-10T19:09:02.448Z,18.10
2019-05-10T19:11:33.106Z,18.00
2019-05-10T19:14:13.911Z,18.00
2019-05-10T19:17:19.364Z,18.00
2019-05-10T19:19:47.403Z,18.00
2019-05-10T19:22:15.429Z,17.90
2019-05-10T19:24:43.691Z,17.80
2019-05-10T19:27:11.801Z,17.80
2019-05-10T19:29:45.614Z,17.80
2019-05-10T19:32:11.486Z,17.80
2019-05-10T19:34:39.659Z,17.70
2019-05-10T19:37:07.664Z,17.70
2019-05-10T19:39:35.694Z,17.60
2019-05-10T19:42:06.131Z,17.60
2019-05-10T19:44:39.792Z,17.60
2019-05-10T19:47:04.310Z,17.60
2019-05-10T19:49:32.232Z,17.60
2019-05-10T19:52:00.153Z,17.50
2019-05-10T19:54:28.049Z,17.50
2019-05-10T19:56:56.323Z,17.50
2019-05-10T19:59:24.320Z,17.50
2019-05-10T20:01:52.345Z,17.40
2019-05-10T20:04:20.644Z,17.40
2019-05-10T20:06:48.605Z,17.40
2019-05-10T20:09:16.681Z,17.40
2019-05-10T20:11:44.660Z,17.30
2019-05-10T20:14:36.527Z,17.30
2019-05-10T20:17:29.334Z,17.30
2019-05-10T20:19:57.531Z,17.30
2019-05-10T20:22:25.554Z,17.30
2019-05-10T20:24:53.555Z,17.20
2019-05-10T20:28:09.169Z,17.10
2019-05-10T20:30:35.185Z,17.10
2019-05-10T20:33:03.356Z,17.10
2019-05-10T20:35:31.661Z,17.10
2019-05-10T20:38:02.443Z,17.10
2019-05-10T20:40:29.952Z,17.00
2019-05-10T20:42:57.880Z,16.90
2019-05-10T20:45:25.925Z,16.90
2019-05-10T20:47:53.996Z,16.90
2019-05-10T20:50:22.033Z,16.90
2019-05-10T20:52:49.994Z,16.90
2019-05-10T20:55:18.168Z,16.80
2019-05-10T20:57:46.239Z,16.80
2019-05-10T21:00:14.225Z,16.70
2019-05-10T21:02:42.121Z,16.60
2019-05-10T21:05:10.300Z,16.60
2019-05-10T21:07:38.457Z,16.60
2019-05-10T21:10:06.916Z,16.50
2019-05-10T21:12:34.908Z,16.50
2019-05-10T21:15:44.568Z,16.50
2019-05-10T21:18:10.979Z,16.50
2019-05-10T21:20:39.175Z,16.50
2019-05-10T21:23:07.200Z,16.40
2019-05-10T21:25:35.384Z,16.40
2019-05-10T21:28:03.575Z,16.30
2019-05-10T21:30:31.570Z,16.40
2019-05-10T21:32:59.510Z,16.30
2019-05-10T21:35:27.860Z,16.30
2019-05-10T21:37:56.266Z,16.30
2019-05-10T21:40:24.772Z,16.30
2019-05-10T21:42:52.995Z,16.30
2019-05-10T21:45:21.054Z,16.20
2019-05-10T21:47:51.445Z,16.20
2019-05-10T21:50:18.712Z,16.20
2019-05-10T21:52:46.666Z,16.20
2019-05-10T21:55:14.487Z,16.20
2019-05-10T21:57:42.442Z,16.20
2019-05-10T22:00:13.236Z,16.20
2019-05-10T22:02:41.529Z,16.10
2019-05-10T22:05:09.478Z,16.10
2019-05-10T22:07:37.424Z,16.10
2019-05-10T22:10:05.660Z,16.10
2019-05-10T22:12:33.601Z,16.10
2019-05-10T22:15:01.698Z,16.00
2019-05-10T22:17:29.767Z,16.00
2019-05-10T22:19:57.739Z,16.00
2019-05-10T22:22:25.946Z,15.90
2019-05-10T22:24:53.964Z,16.00
2019-05-10T22:27:21.841Z,15.90
2019-05-10T22:29:49.804Z,15.90
2019-05-10T22:32:17.816Z,15.90
2019-05-10T22:34:45.727Z,15.90
2019-05-10T22:37:13.702Z,15.80
2019-05-10T22:39:41.640Z,15.80
2019-05-10T22:42:09.603Z,15.80
2019-05-10T22:44:37.573Z,15.80
2019-05-10T22:47:05.447Z,15.70
2019-05-10T22:49:33.373Z,15.70
2019-05-10T22:52:01.407Z,15.70
2019-05-10T22:54:29.272Z,15.70
2019-05-10T22:56:57.341Z,15.70
2019-05-10T22:59:25.255Z,15.70
2019-05-10T23:01:53.551Z,15.60
2019-05-10T23:04:21.511Z,15.60
2019-05-10T23:06:49.502Z,15.60
2019-05-10T23:09:24.742Z,15.60
2019-05-10T23:11:47.620Z,15.50
2019-05-10T23:14:16.914Z,15.50
2019-05-10T23:16:45.173Z,15.50
2019-05-10T23:19:13.516Z,15.50
2019-05-10T23:21:42.168Z,15.50
2019-05-10T23:24:12.889Z,15.50
2019-05-10T23:26:41.041Z,15.40
2019-05-10T23:29:09.417Z,15.50
2019-05-10T23:31:37.777Z,15.40
2019-05-10T23:34:05.829Z,15.40
2019-05-10T23:36:34.127Z,15.40
2019-05-10T23:39:02.178Z,15.40
2019-05-10T23:41:30.050Z,15.40
2019-05-10T23:44:05.793Z,15.40
2019-05-10T23:46:33.746Z,15.30
2019-05-10T23:49:02.250Z,15.30
2019-05-10T23:51:30.385Z,15.20
2019-05-10T23:53:58.872Z,15.20
2019-05-10T23:56:26.906Z,15.20
2019-05-10T23:58:55.391Z,15.20
